createdAt,value
2018-11-28T00:03:29.225Z,83.06
2018-11-28T00:08:33.832Z,82.09
2018-11-28T00:13:38.536Z,82.80
2018-11-28T00:18:43.184Z,82.52
2018-11-28T00:24:06.458Z,82.17
2018-11-28T00:29:11.069Z,84.34
2018-11-28T00:34:15.649Z,83.17
2018-11-28T00:39:38.883Z,82.71
2018-11-28T00:45:02.181Z,81.89
2018-11-28T00:50:26.382Z,81.82
2018-11-28T00:55:31.026Z,82.06
2018-11-28T01:00:35.487Z,82.24
2018-11-28T01:05:40.158Z,82.18
2018-11-28T01:10:44.707Z,82.46
2018-11-28T01:15:49.262Z,82.19
2018-11-28T01:20:53.817Z,82.23
2018-11-28T01:26:17.081Z,82.60
2018-11-28T01:31:21.633Z,83.05
2018-11-28T01:36:26.229Z,83.18
2018-11-28T01:41:30.781Z,82.92
2018-11-28T01:46:35.312Z,82.66
2018-11-28T01:51:39.972Z,82.17
2018-11-28T01:56:44.524Z,82.40
2018-11-28T02:01:49.024Z,82.76
2018-11-28T02:06:53.611Z,82.04
2018-11-28T02:11:58.180Z,81.23
2018-11-28T02:17:02.759Z,81.69
2018-11-28T02:22:07.329Z,82.07
2018-11-28T02:27:11.889Z,82.72
2018-11-28T02:32:16.424Z,82.79
2018-11-28T02:37:20.948Z,83.03
2018-11-28T02:42:25.489Z,82.55
2018-11-28T02:47:30.051Z,82.56
2018-11-28T02:52:34.638Z,82.76
2018-11-28T02:57:39.265Z,82.54
2018-11-28T03:02:43.789Z,82.78
2018-11-28T03:07:48.344Z,82.16
2018-11-28T03:13:11.559Z,82.81
2018-11-28T03:18:16.188Z,83.00
2018-11-28T03:23:20.824Z,82.65
2018-11-28T03:28:25.398Z,82.45
2018-11-28T03:33:30.009Z,82.11
2018-11-28T03:38:34.639Z,81.73
2018-11-28T03:43:39.208Z,81.83
2018-11-28T03:48:43.770Z,81.38
2018-11-28T03:53:48.575Z,81.03
2018-11-28T03:58:53.583Z,81.23
2018-11-28T04:03:58.032Z,80.61
2018-11-28T04:09:02.658Z,81.05
2018-11-28T04:14:07.229Z,81.64
2018-11-28T04:19:11.757Z,81.58
2018-11-28T04:24:16.296Z,81.08
2018-11-28T04:29:20.907Z,81.71
2018-11-28T04:34:25.456Z,81.93
2018-11-28T04:39:30.024Z,80.25
2018-11-28T04:44:34.693Z,80.56
2018-11-28T04:49:39.269Z,80.70
2018-11-28T04:54:43.815Z,80.65
2018-11-28T05:00:07.069Z,80.39
2018-11-28T05:05:12.212Z,81.04
2018-11-28T05:10:35.743Z,80.13
2018-11-28T05:15:40.288Z,80.81
2018-11-28T05:21:04.000Z,79.67
2018-11-28T05:26:08.558Z,80.36
2018-11-28T05:31:13.126Z,80.42
2018-11-28T05:36:17.706Z,80.23
2018-11-28T05:41:22.291Z,79.77
2018-11-28T05:46:26.908Z,79.86
2018-11-28T05:51:31.378Z,78.81
2018-11-28T05:56:35.924Z,79.21
2018-11-28T06:01:40.470Z,79.77
2018-11-28T06:07:03.980Z,80.50
2018-11-28T06:12:08.541Z,80.08
2018-11-28T06:17:13.207Z,80.02
2018-11-28T06:22:17.817Z,80.24
2018-11-28T06:27:22.471Z,79.62
2018-11-28T06:32:27.077Z,80.20
2018-11-28T06:37:31.643Z,79.88
2018-11-28T06:42:55.195Z,79.43
2018-11-28T06:47:59.814Z,79.40
2018-11-28T06:53:04.526Z,78.78
2018-11-28T06:58:28.033Z,80.87
2018-11-28T07:03:32.584Z,80.93
2018-11-28T07:08:37.116Z,81.76
2018-11-28T07:13:41.699Z,81.07
2018-11-28T07:19:07.495Z,80.18
2018-11-28T07:24:31.265Z,80.27
2018-11-28T07:29:54.878Z,79.81
2018-11-28T07:34:59.448Z,79.37
2018-11-28T07:40:04.194Z,81.02
2018-11-28T07:45:11.468Z,80.16
2018-11-28T07:50:16.242Z,78.92
2018-11-28T07:55:20.927Z,80.34
2018-11-28T08:00:25.576Z,80.00
2018-11-28T08:05:30.139Z,79.76
2018-11-28T08:10:34.820Z,79.50
2018-11-28T08:15:39.480Z,77.81
2018-11-28T08:20:44.042Z,79.17
2018-11-28T08:25:48.576Z,79.13
2018-11-28T08:30:53.235Z,79.36
2018-11-28T08:35:57.939Z,79.21
2018-11-28T08:41:02.719Z,79.27
2018-11-28T08:46:07.764Z,79.34
2018-11-28T08:51:12.368Z,78.71
2018-11-28T08:56:17.011Z,78.36
2018-11-28T09:01:21.531Z,79.32
2018-11-28T09:06:44.793Z,79.00
2018-11-28T09:12:08.366Z,79.25
2018-11-28T09:17:31.966Z,79.10
2018-11-28T09:22:36.526Z,78.84
2018-11-28T09:27:41.278Z,78.70
2018-11-28T09:32:46.112Z,78.27
2018-11-28T09:37:50.811Z,78.37
2018-11-28T09:43:14.818Z,77.96
2018-11-28T09:48:19.395Z,78.56
2018-11-28T09:53:23.963Z,77.84
2018-11-28T09:58:28.541Z,77.48
2018-11-28T10:03:33.179Z,76.66
2018-11-28T10:08:37.819Z,76.93
2018-11-28T10:14:01.047Z,74.78
2018-11-28T10:19:05.640Z,73.00
2018-11-28T10:24:10.264Z,72.78
2018-11-28T10:29:14.974Z,70.54
2018-11-28T10:34:19.739Z,70.00
2018-11-28T10:39:24.300Z,68.78
2018-11-28T10:44:28.888Z,68.00
2018-11-28T10:49:33.488Z,66.98
2018-11-28T10:54:37.961Z,67.51
2018-11-28T10:59:42.502Z,66.15
2018-11-28T11:05:05.813Z,66.62
2018-11-28T11:10:29.074Z,66.02
2018-11-28T11:15:33.750Z,66.69
2018-11-28T11:20:38.355Z,65.32
2018-11-28T11:25:42.916Z,65.45
2018-11-28T11:30:47.575Z,65.01
2018-11-28T11:36:11.064Z,64.55
2018-11-28T11:41:15.682Z,64.73
2018-11-28T11:46:20.262Z,64.65
2018-11-28T11:51:24.913Z,64.19
2018-11-28T11:56:29.454Z,64.09
2018-11-28T12:01:34.116Z,63.46
2018-11-28T12:06:38.720Z,62.51
2018-11-28T12:11:43.327Z,61.62
2018-11-28T12:16:47.815Z,61.29
2018-11-28T12:21:52.357Z,61.30
2018-11-28T12:26:56.917Z,61.67
2018-11-28T12:32:01.501Z,60.95
2018-11-28T12:37:06.369Z,60.71
2018-11-28T12:42:10.975Z,61.32
2018-11-28T12:47:15.815Z,60.95
2018-11-28T12:52:20.416Z,61.24
2018-11-28T12:57:24.987Z,60.66
2018-11-28T13:02:29.689Z,60.19
2018-11-28T13:07:34.291Z,60.31
2018-11-28T13:12:38.780Z,59.84
2018-11-28T13:17:43.360Z,59.41
2018-11-28T13:22:49.089Z,59.56
2018-11-28T13:27:53.706Z,59.46
2018-11-28T13:32:58.279Z,59.91
2018-11-28T13:38:04.318Z,60.14
2018-11-28T13:43:09.011Z,59.95
2018-11-28T13:48:13.802Z,60.41
2018-11-28T13:53:37.915Z,60.06
2018-11-28T13:58:42.456Z,59.93
2018-11-28T14:09:10.655Z,59.89
2018-11-28T14:14:15.303Z,59.77
2018-11-28T14:19:19.804Z,59.88
2018-11-28T14:24:24.376Z,59.75
2018-11-28T14:29:29.004Z,60.63
2018-11-28T14:34:33.620Z,60.35
2018-11-28T14:39:38.287Z,60.15
2018-11-28T14:44:42.756Z,60.57
2018-11-28T14:49:47.310Z,60.02
2018-11-28T14:54:51.893Z,61.10
2018-11-28T14:59:56.545Z,60.79
2018-11-28T15:05:01.053Z,60.86
2018-11-28T15:10:05.716Z,60.92
2018-11-28T15:15:28.969Z,60.99
2018-11-28T15:20:33.567Z,60.85
2018-11-28T15:25:38.112Z,61.50
2018-11-28T15:30:42.829Z,61.65
2018-11-28T15:35:47.436Z,61.85
2018-11-28T15:40:52.253Z,61.77
2018-11-28T15:45:56.899Z,62.10
2018-11-28T15:56:11.679Z,62.16
2018-11-28T16:01:16.272Z,62.67
2018-11-28T16:06:20.822Z,62.89
2018-11-28T16:11:25.788Z,62.20
2018-11-28T16:16:30.392Z,62.65
2018-11-28T16:21:35.001Z,62.54
2018-11-28T16:26:39.544Z,62.81
2018-11-28T16:31:44.111Z,62.79
2018-11-28T16:36:48.724Z,62.65
2018-11-28T16:41:53.349Z,62.44
2018-11-28T16:47:16.836Z,62.50
2018-11-28T16:52:21.484Z,62.04
2018-11-28T16:57:25.982Z,62.23
2018-11-28T17:02:30.569Z,61.70
2018-11-28T17:07:35.101Z,63.15
2018-11-28T17:12:39.633Z,61.96
2018-11-28T17:17:44.390Z,61.94
2018-11-28T17:22:49.595Z,61.44
2018-11-28T17:27:54.130Z,61.94
2018-11-28T17:32:58.821Z,61.97
2018-11-28T17:38:03.413Z,61.61
2018-11-28T17:43:08.779Z,61.54
2018-11-28T17:48:15.010Z,61.83
2018-11-28T17:53:38.456Z,61.70
2018-11-28T17:58:42.980Z,62.36
2018-11-28T18:03:47.629Z,62.15
2018-11-28T18:08:52.147Z,63.08
2018-11-28T18:13:56.704Z,62.12
2018-11-28T18:19:20.223Z,62.37
2018-11-28T18:24:43.854Z,62.83
2018-11-28T18:30:07.439Z,63.19
2018-11-28T18:35:12.529Z,63.58
2018-11-28T18:45:29.255Z,63.62
2018-11-28T18:50:33.900Z,63.58
2018-11-28T18:55:38.357Z,63.69
2018-11-28T19:01:03.000Z,63.76
2018-11-28T19:06:07.722Z,63.75
2018-11-28T19:11:31.295Z,63.97
2018-11-28T19:16:37.978Z,63.96
2018-11-28T19:22:24.935Z,63.80
2018-11-28T19:32:57.160Z,64.35
2018-11-28T19:38:02.595Z,64.61
2018-11-28T19:48:51.229Z,64.54
2018-11-28T19:54:15.221Z,64.44
2018-11-28T19:59:20.791Z,63.82
2018-11-28T20:04:25.961Z,63.99
2018-11-28T20:09:31.139Z,63.84
2018-11-28T20:25:42.913Z,63.88
2018-11-28T20:30:47.603Z,64.04
2018-11-28T20:35:52.386Z,64.34
2018-11-28T20:41:04.390Z,64.60
2018-11-28T20:46:09.053Z,64.53
2018-11-28T20:51:13.593Z,64.92
2018-11-28T20:56:18.203Z,65.50
2018-11-28T21:01:22.811Z,65.99
2018-11-28T21:06:27.326Z,66.74
2018-11-28T21:11:31.889Z,67.32
2018-11-28T21:16:36.456Z,67.37
2018-11-28T21:21:41.032Z,67.77
2018-11-28T21:26:45.579Z,68.13
2018-11-28T21:37:01.255Z,68.27
2018-11-28T21:42:06.264Z,68.63
2018-11-28T21:47:10.800Z,69.22
2018-11-28T21:52:15.403Z,69.12
2018-11-28T21:57:19.964Z,69.26
2018-11-28T22:02:24.531Z,69.46
2018-11-28T22:07:48.079Z,69.76
2018-11-28T22:12:52.637Z,69.45
2018-11-28T22:17:58.178Z,69.39
2018-11-28T22:23:02.679Z,68.98
2018-11-28T22:28:07.936Z,69.01
2018-11-28T22:38:42.049Z,68.51
2018-11-28T22:43:46.627Z,68.66
2018-11-28T22:48:51.180Z,68.53
2018-11-28T22:53:55.767Z,68.96
2018-11-28T22:59:00.338Z,68.29
2018-11-28T23:04:04.891Z,68.38
2018-11-28T23:09:09.954Z,68.03
2018-11-28T23:14:14.489Z,68.19
2018-11-28T23:19:19.034Z,68.10
2018-11-28T23:24:23.660Z,67.93
2018-11-28T23:29:28.214Z,67.95
2018-11-28T23:34:32.765Z,67.85
2018-11-28T23:39:37.343Z,67.61
2018-11-28T23:44:41.861Z,67.99
2018-11-28T23:49:46.422Z,68.00
2018-11-28T23:54:51.015Z,67.55
